createdAt,value
2023-03-17T00:00:43.610Z,8.07
2023-03-17T00:03:22.284Z,8.47
2023-03-17T00:05:49.923Z,7.00
2023-03-17T00:08:37.474Z,11.87
2023-03-17T00:11:04.770Z,7.60
2023-03-17T00:13:32.258Z,5.23
2023-03-17T00:16:04.914Z,5.93
2023-03-17T00:18:33.556Z,6.17
2023-03-17T00:21:00.826Z,7.40
2023-03-17T00:23:28.067Z,4.73
2023-03-17T00:25:55.291Z,4.50
2023-03-17T00:28:27.426Z,6.70
2023-03-17T00:31:01.241Z,4.50
2023-03-17T00:33:30.960Z,5.17
2023-03-17T00:35:59.519Z,5.57
2023-03-17T00:38:26.640Z,6.37
2023-03-17T00:40:54.290Z,7.90
2023-03-17T00:43:22.537Z,6.13
2023-03-17T00:45:49.632Z,7.50
2023-03-17T00:48:22.078Z,5.43
2023-03-17T00:50:50.635Z,7.53
2023-03-17T00:53:21.610Z,6.67
2023-03-17T00:55:49.273Z,8.53
2023-03-17T00:58:33.565Z,5.83
2023-03-17T01:01:01.255Z,7.70
2023-03-17T01:03:28.649Z,7.23
2023-03-17T01:05:59.654Z,5.57
2023-03-17T01:08:28.306Z,9.50
2023-03-17T01:10:56.234Z,5.17
2023-03-17T01:13:23.994Z,8.17
2023-03-17T01:15:52.569Z,7.23
2023-03-17T01:18:23.093Z,5.50
2023-03-17T01:20:51.058Z,5.23
2023-03-17T01:23:18.808Z,6.13
2023-03-17T01:25:46.039Z,8.27
2023-03-17T01:28:18.674Z,8.97
2023-03-17T01:30:47.103Z,5.97
2023-03-17T01:33:14.867Z,5.33
2023-03-17T01:35:43.914Z,6.57
2023-03-17T01:38:11.654Z,6.93
2023-03-17T01:40:45.796Z,7.80
2023-03-17T01:43:33.567Z,7.83
2023-03-17T01:46:31.128Z,7.07
2023-03-17T01:49:40.468Z,8.47
2023-03-17T01:52:15.074Z,10.57
2023-03-17T01:55:02.065Z,11.23
2023-03-17T01:57:37.227Z,6.20
2023-03-17T02:00:19.800Z,9.73
2023-03-17T02:02:50.161Z,17.67
2023-03-17T02:05:21.296Z,14.43
2023-03-17T02:07:49.405Z,11.90
2023-03-17T02:10:20.644Z,7.33
2023-03-17T02:12:53.260Z,6.87
2023-03-17T02:15:20.525Z,7.30
2023-03-17T02:17:47.738Z,12.30
2023-03-17T02:20:58.771Z,11.43
2023-03-17T02:23:26.324Z,13.20
2023-03-17T02:25:54.456Z,10.57
2023-03-17T02:28:28.008Z,10.83
2023-03-17T02:30:55.281Z,9.87
2023-03-17T02:33:22.406Z,11.03
2023-03-17T02:35:49.683Z,11.33
2023-03-17T02:38:17.542Z,13.70
2023-03-17T02:40:44.920Z,10.77
2023-03-17T02:43:12.063Z,8.53
2023-03-17T02:45:39.174Z,9.00
2023-03-17T02:48:07.321Z,9.17
2023-03-17T02:50:34.479Z,9.53
2023-03-17T02:53:01.543Z,8.20
2023-03-17T02:55:28.841Z,8.00
2023-03-17T02:57:56.066Z,10.57
2023-03-17T03:00:23.314Z,9.37
2023-03-17T03:02:50.617Z,8.30
2023-03-17T03:05:18.617Z,9.00
2023-03-17T03:07:45.973Z,12.30
2023-03-17T03:10:13.472Z,8.27
2023-03-17T03:12:40.568Z,8.57
2023-03-17T03:15:09.753Z,10.43
2023-03-17T03:17:36.959Z,9.63
2023-03-17T03:20:04.885Z,10.00
2023-03-17T03:22:32.022Z,9.77
2023-03-17T03:24:59.131Z,7.13
2023-03-17T03:27:26.751Z,11.57
2023-03-17T03:29:53.855Z,9.67
2023-03-17T03:32:20.988Z,9.97
2023-03-17T03:34:48.040Z,11.77
2023-03-17T03:37:15.704Z,8.53
2023-03-17T03:39:42.786Z,9.27
2023-03-17T03:42:10.039Z,7.53
2023-03-17T03:44:37.186Z,8.20
2023-03-17T03:47:04.514Z,11.57
2023-03-17T03:49:31.612Z,10.63
2023-03-17T03:51:58.739Z,9.43
2023-03-17T03:54:25.895Z,10.00
2023-03-17T03:56:52.973Z,13.27
2023-03-17T03:59:20.031Z,10.97
2023-03-17T04:01:47.356Z,10.87
2023-03-17T04:04:14.404Z,13.37
2023-03-17T04:06:42.020Z,12.43
2023-03-17T04:09:09.472Z,8.97
2023-03-17T04:11:36.865Z,10.10
2023-03-17T04:14:04.265Z,12.77
2023-03-17T04:16:31.451Z,14.57
2023-03-17T04:18:58.562Z,12.67
2023-03-17T04:21:25.829Z,11.83
2023-03-17T04:23:52.917Z,13.80
2023-03-17T04:26:20.086Z,11.20
2023-03-17T04:28:47.175Z,10.00
2023-03-17T04:31:14.456Z,16.80
2023-03-17T04:33:41.575Z,11.60
2023-03-17T04:36:17.335Z,10.53
2023-03-17T04:38:44.443Z,11.23
2023-03-17T04:41:12.269Z,10.87
2023-03-17T04:43:39.865Z,12.17
2023-03-17T04:46:07.037Z,17.77
2023-03-17T04:48:34.420Z,13.10
2023-03-17T04:51:01.775Z,19.97
2023-03-17T04:53:28.867Z,19.37
2023-03-17T04:55:56.686Z,13.90
2023-03-17T04:58:30.913Z,12.27
2023-03-17T05:00:59.161Z,15.47
2023-03-17T05:03:28.140Z,14.57
2023-03-17T05:05:58.473Z,10.80
2023-03-17T05:08:26.368Z,11.97
2023-03-17T05:10:53.518Z,12.73
2023-03-17T05:13:20.855Z,12.47
2023-03-17T05:15:49.076Z,12.70
2023-03-17T05:18:16.739Z,11.63
2023-03-17T05:20:44.098Z,10.90
2023-03-17T05:23:11.625Z,13.63
2023-03-17T05:25:40.146Z,11.70
2023-03-17T05:28:07.819Z,13.67
2023-03-17T05:30:36.800Z,15.23
2023-03-17T05:33:04.618Z,13.07
2023-03-17T05:35:32.169Z,14.20
2023-03-17T05:37:59.259Z,13.90
2023-03-17T05:40:26.679Z,15.20
2023-03-17T05:42:54.140Z,18.67
2023-03-17T05:45:21.212Z,11.23
2023-03-17T05:47:48.409Z,10.93
2023-03-17T05:50:15.674Z,13.23
2023-03-17T05:52:43.470Z,14.20
2023-03-17T05:55:10.922Z,11.60
2023-03-17T05:57:38.118Z,10.37
2023-03-17T06:00:05.718Z,11.77
2023-03-17T06:02:33.028Z,16.30
2023-03-17T06:05:00.379Z,12.87
2023-03-17T06:07:33.070Z,11.27
2023-03-17T06:10:06.880Z,13.83
2023-03-17T06:12:34.070Z,10.37
2023-03-17T06:15:01.153Z,11.00
2023-03-17T06:17:28.335Z,11.97
2023-03-17T06:19:55.616Z,13.17
2023-03-17T06:22:22.738Z,8.70
2023-03-17T06:24:50.037Z,15.80
2023-03-17T06:27:17.099Z,11.70
2023-03-17T06:29:44.210Z,14.63
2023-03-17T06:32:20.441Z,11.17
2023-03-17T06:34:48.447Z,12.20
2023-03-17T06:37:16.588Z,13.57
2023-03-17T06:39:43.953Z,12.87
2023-03-17T06:42:11.391Z,12.23
2023-03-17T06:44:38.565Z,10.40
2023-03-17T06:47:06.327Z,12.10
2023-03-17T06:49:33.807Z,8.97
2023-03-17T06:52:00.906Z,10.57
2023-03-17T06:54:29.192Z,11.67
2023-03-17T06:56:56.627Z,11.37
2023-03-17T06:59:23.979Z,12.37
2023-03-17T07:01:52.102Z,12.27
2023-03-17T07:04:19.820Z,11.97
2023-03-17T07:06:46.968Z,11.67
2023-03-17T07:09:15.674Z,14.07
2023-03-17T07:11:42.960Z,13.33
2023-03-17T07:14:10.234Z,10.37
2023-03-17T07:16:37.797Z,10.40
2023-03-17T07:19:05.012Z,12.87
2023-03-17T07:21:32.112Z,11.53
2023-03-17T07:23:59.222Z,18.27
2023-03-17T07:26:26.492Z,14.23
2023-03-17T07:28:53.578Z,13.13
2023-03-17T07:31:20.665Z,13.67
2023-03-17T07:33:47.915Z,15.73
2023-03-17T07:36:15.915Z,14.63
2023-03-17T07:38:43.841Z,16.93
2023-03-17T07:41:11.128Z,11.57
2023-03-17T07:43:38.554Z,12.00
2023-03-17T07:46:06.567Z,14.03
2023-03-17T07:48:36.628Z,12.37
2023-03-17T07:51:04.262Z,10.77
2023-03-17T07:53:31.712Z,12.00
2023-03-17T07:55:58.854Z,11.13
2023-03-17T07:58:25.942Z,9.00
2023-03-17T08:00:53.579Z,11.03
2023-03-17T08:03:20.670Z,10.37
2023-03-17T08:05:57.578Z,13.13
2023-03-17T08:08:25.277Z,13.43
2023-03-17T08:10:52.726Z,9.90
2023-03-17T08:13:20.052Z,11.07
2023-03-17T08:15:47.231Z,11.77
2023-03-17T08:18:14.469Z,11.77
2023-03-17T08:20:42.190Z,12.03
2023-03-17T08:23:09.546Z,13.37
2023-03-17T08:25:37.102Z,11.80
2023-03-17T08:28:04.674Z,11.80
2023-03-17T08:30:33.717Z,11.00
2023-03-17T08:33:01.818Z,11.50
2023-03-17T08:35:29.510Z,10.63
2023-03-17T08:37:57.118Z,13.17
2023-03-17T08:40:24.464Z,14.97
2023-03-17T08:42:51.853Z,12.63
2023-03-17T08:45:19.485Z,17.30
2023-03-17T08:47:47.716Z,11.13
2023-03-17T08:50:18.539Z,10.37
2023-03-17T08:52:46.145Z,14.80
2023-03-17T08:55:14.655Z,16.23
2023-03-17T08:57:43.139Z,10.87
2023-03-17T09:00:12.362Z,12.97
2023-03-17T09:02:43.768Z,14.57
2023-03-17T09:05:16.094Z,14.30
2023-03-17T09:07:43.770Z,18.63
2023-03-17T09:10:12.554Z,13.20
2023-03-17T09:12:39.742Z,15.80
2023-03-17T09:15:07.812Z,10.00
2023-03-17T09:17:35.304Z,8.97
2023-03-17T09:20:02.400Z,17.30
2023-03-17T09:22:29.546Z,8.40
2023-03-17T09:24:56.615Z,12.33
2023-03-17T09:27:24.105Z,9.53
2023-03-17T09:29:51.269Z,12.60
2023-03-17T09:32:18.436Z,10.87
2023-03-17T09:34:46.338Z,10.73
2023-03-17T09:37:13.741Z,11.67
2023-03-17T09:39:41.523Z,11.67
2023-03-17T09:42:36.460Z,8.73
2023-03-17T09:45:32.573Z,9.07
2023-03-17T09:48:17.278Z,10.67
2023-03-17T09:50:57.902Z,16.47
2023-03-17T09:53:48.116Z,8.53
2023-03-17T09:56:18.910Z,11.50
2023-03-17T09:59:20.077Z,13.07
2023-03-17T10:01:48.031Z,10.30
2023-03-17T10:04:17.596Z,11.40
2023-03-17T10:06:47.501Z,8.53
2023-03-17T10:09:52.891Z,6.90
2023-03-17T10:12:45.067Z,10.20
2023-03-17T10:15:28.015Z,8.83
2023-03-17T10:17:55.471Z,6.90
2023-03-17T10:20:30.304Z,10.77
2023-03-17T10:23:04.943Z,8.40
2023-03-17T10:25:34.992Z,9.67
2023-03-17T10:28:31.812Z,9.03
2023-03-17T10:31:20.310Z,9.60
2023-03-17T10:33:50.736Z,8.13
2023-03-17T10:36:31.746Z,9.17
2023-03-17T10:38:58.936Z,12.03
2023-03-17T10:41:27.086Z,8.60
2023-03-17T10:43:54.149Z,10.27
2023-03-17T10:46:24.464Z,11.73
2023-03-17T10:49:02.255Z,8.43
2023-03-17T10:51:36.914Z,8.80
2023-03-17T10:54:11.770Z,8.77
2023-03-17T10:56:42.460Z,10.80
2023-03-17T10:59:27.971Z,12.80
2023-03-17T11:02:00.899Z,7.10
2023-03-17T11:04:41.942Z,7.10
2023-03-17T11:07:21.392Z,10.57
2023-03-17T11:09:57.090Z,7.83
2023-03-17T11:12:39.424Z,11.30
2023-03-17T11:15:12.073Z,7.73
2023-03-17T11:18:17.156Z,9.87
2023-03-17T11:21:11.485Z,17.43
2023-03-17T11:23:53.993Z,8.27
2023-03-17T11:26:56.512Z,11.33
2023-03-17T11:30:06.649Z,8.17
2023-03-17T11:32:44.022Z,7.63
2023-03-17T11:35:47.579Z,6.87
2023-03-17T11:38:24.662Z,6.93
2023-03-17T11:41:42.591Z,6.37
2023-03-17T11:44:59.809Z,7.63
2023-03-17T11:48:19.663Z,11.33
2023-03-17T11:50:56.685Z,6.33
2023-03-17T11:54:05.992Z,7.30
2023-03-17T11:57:01.296Z,8.63
2023-03-17T11:59:45.123Z,8.90
2023-03-17T12:02:43.987Z,7.50
2023-03-17T12:05:21.165Z,7.67
2023-03-17T12:08:01.167Z,6.50
2023-03-17T12:10:41.015Z,6.20
2023-03-17T12:13:46.495Z,5.40
2023-03-17T12:16:27.052Z,6.70
2023-03-17T12:19:30.023Z,12.57
2023-03-17T12:22:08.280Z,5.50
2023-03-17T12:25:04.505Z,8.30
2023-03-17T12:27:44.153Z,7.60
2023-03-17T12:30:23.727Z,8.20
2023-03-17T12:33:21.634Z,8.07
2023-03-17T12:35:48.979Z,6.80
2023-03-17T12:38:43.866Z,5.73
2023-03-17T12:41:54.140Z,6.80
2023-03-17T12:45:00.924Z,4.97
2023-03-17T12:48:20.342Z,6.40
2023-03-17T12:51:38.506Z,6.07
2023-03-17T12:54:32.512Z,6.40
2023-03-17T12:57:17.970Z,5.63
2023-03-17T12:59:47.811Z,9.30
2023-03-17T13:02:37.377Z,8.33
2023-03-17T13:05:16.548Z,5.30
2023-03-17T13:07:53.997Z,6.67
2023-03-17T13:10:51.306Z,6.87
2023-03-17T13:13:55.492Z,9.40
2023-03-17T13:16:49.019Z,6.83
2023-03-17T13:19:19.400Z,14.33
2023-03-17T13:21:52.156Z,9.20
2023-03-17T13:24:36.085Z,12.03
2023-03-17T13:27:04.812Z,5.93
2023-03-17T13:29:43.918Z,11.07
2023-03-17T13:32:38.715Z,5.53
2023-03-17T13:35:18.068Z,8.40
2023-03-17T13:38:13.018Z,4.53
2023-03-17T13:41:22.802Z,4.33
2023-03-17T13:44:35.343Z,5.60
2023-03-17T13:47:27.144Z,10.03
2023-03-17T13:50:00.163Z,6.80
2023-03-17T13:52:38.947Z,5.67
2023-03-17T13:55:42.197Z,6.80
2023-03-17T13:58:22.688Z,7.60
2023-03-17T14:01:00.349Z,4.13
2023-03-17T14:03:55.559Z,5.13
2023-03-17T14:06:28.210Z,6.83
2023-03-17T14:09:00.763Z,8.47
2023-03-17T14:11:37.881Z,7.43
2023-03-17T14:14:53.230Z,7.37
2023-03-17T14:17:28.396Z,5.60
2023-03-17T14:20:24.575Z,4.73
2023-03-17T14:23:00.066Z,4.73
2023-03-17T14:25:34.891Z,8.33
2023-03-17T14:28:06.164Z,4.03
2023-03-17T14:30:34.947Z,4.37
2023-03-17T14:33:35.919Z,4.07
2023-03-17T14:36:08.098Z,4.20
2023-03-17T14:38:37.728Z,5.27
2023-03-17T14:41:18.258Z,2.57
2023-03-17T14:43:46.309Z,4.23
2023-03-17T14:53:46.855Z,11.73
2023-03-17T14:56:14.073Z,6.87
2023-03-17T14:58:43.757Z,7.40
2023-03-17T15:01:20.636Z,5.10
2023-03-17T15:04:20.721Z,3.10
2023-03-17T15:06:53.928Z,6.77
2023-03-17T15:09:38.660Z,4.40
2023-03-17T15:12:15.906Z,4.97
2023-03-17T15:14:47.377Z,6.67
2023-03-17T15:17:37.392Z,3.83
2023-03-17T15:20:07.846Z,3.57
2023-03-17T15:23:05.223Z,5.43
2023-03-17T15:25:39.468Z,6.93
2023-03-17T15:28:18.389Z,3.70
2023-03-17T15:30:48.735Z,3.60
2023-03-17T15:33:34.356Z,2.90
2023-03-17T15:36:01.952Z,5.07
2023-03-17T15:38:29.591Z,3.30
2023-03-17T15:40:57.486Z,5.50
2023-03-17T15:43:24.835Z,6.03
2023-03-17T15:45:57.938Z,3.57
2023-03-17T15:48:31.561Z,4.83
2023-03-17T15:51:01.520Z,5.70
2023-03-17T15:53:29.185Z,5.77
2023-03-17T15:55:56.503Z,10.27
2023-03-17T15:58:23.882Z,4.93
2023-03-17T16:00:54.826Z,5.17
2023-03-17T16:03:29.850Z,6.93
2023-03-17T16:05:57.870Z,3.47
2023-03-17T16:08:25.380Z,3.40
2023-03-17T16:10:52.841Z,5.93
2023-03-17T16:13:20.414Z,4.80
2023-03-17T16:15:56.301Z,3.73
2023-03-17T16:18:33.314Z,5.60
2023-03-17T16:21:03.338Z,3.73
2023-03-17T16:23:34.822Z,9.30
2023-03-17T16:26:14.277Z,4.87
2023-03-17T16:28:42.890Z,6.03
2023-03-17T16:31:18.758Z,4.67
2023-03-17T16:33:46.679Z,4.77
2023-03-17T16:36:18.898Z,5.53
2023-03-17T16:38:46.671Z,4.30
2023-03-17T16:41:23.570Z,8.17
2023-03-17T16:44:00.293Z,4.37
2023-03-17T16:46:34.328Z,6.30
2023-03-17T16:49:02.389Z,5.20
2023-03-17T16:51:29.527Z,8.13
2023-03-17T16:53:56.931Z,3.67
2023-03-17T16:56:25.512Z,4.73
2023-03-17T16:58:53.891Z,8.17
2023-03-17T17:01:24.980Z,5.37
2023-03-17T17:03:52.802Z,3.80
2023-03-17T17:06:21.415Z,6.10
2023-03-17T17:08:51.291Z,5.27
2023-03-17T17:11:19.825Z,7.17
2023-03-17T17:13:48.663Z,6.50
2023-03-17T17:16:37.505Z,6.27
2023-03-17T17:19:16.528Z,2.47
2023-03-17T17:21:44.812Z,5.73
2023-03-17T17:24:13.286Z,12.30
2023-03-17T17:26:41.085Z,3.63
2023-03-17T17:29:08.209Z,8.70
2023-03-17T17:31:35.902Z,6.63
2023-03-17T17:34:03.022Z,7.37
2023-03-17T17:36:31.147Z,5.57
2023-03-17T17:38:58.942Z,5.73
2023-03-17T17:41:26.055Z,4.30
2023-03-17T17:43:54.075Z,6.37
2023-03-17T17:46:23.248Z,4.67
2023-03-17T17:48:50.738Z,6.53
2023-03-17T17:51:18.291Z,4.43
2023-03-17T17:53:45.460Z,11.27
2023-03-17T17:56:15.870Z,4.97
2023-03-17T17:58:43.897Z,6.07
2023-03-17T18:01:13.875Z,9.33
2023-03-17T18:03:43.050Z,6.40
2023-03-17T18:06:10.834Z,4.13
2023-03-17T18:08:38.438Z,11.17
2023-03-17T18:11:06.490Z,6.13
2023-03-17T18:13:37.290Z,4.47
2023-03-17T18:16:05.507Z,3.00
2023-03-17T18:18:32.668Z,4.83
2023-03-17T18:21:01.927Z,5.93
2023-03-17T18:23:30.326Z,7.27
2023-03-17T18:26:02.656Z,6.83
2023-03-17T18:28:29.857Z,5.97
2023-03-17T18:31:03.825Z,9.87
2023-03-17T18:33:32.764Z,8.90
2023-03-17T18:36:00.330Z,7.10
2023-03-17T18:38:27.506Z,5.17
2023-03-17T18:40:54.605Z,8.10
2023-03-17T18:43:22.375Z,4.67
2023-03-17T18:45:49.907Z,4.40
2023-03-17T18:48:17.164Z,4.83
2023-03-17T18:50:44.554Z,4.63
2023-03-17T18:53:12.550Z,7.77
2023-03-17T18:55:41.575Z,5.00
2023-03-17T18:58:09.067Z,7.20
2023-03-17T19:00:38.293Z,7.40
2023-03-17T19:03:05.459Z,4.90
2023-03-17T19:05:37.655Z,7.10
2023-03-17T19:08:05.436Z,8.57
2023-03-17T19:10:32.958Z,11.40
2023-03-17T19:13:00.564Z,5.33
2023-03-17T19:15:27.975Z,3.33
2023-03-17T19:17:55.460Z,4.67
2023-03-17T19:20:22.585Z,9.20
2023-03-17T19:22:53.476Z,5.33
2023-03-17T19:25:21.657Z,5.10
2023-03-17T19:27:48.916Z,6.70
2023-03-17T19:30:18.665Z,5.27
2023-03-17T19:32:45.841Z,5.97
2023-03-17T19:35:12.984Z,5.10
2023-03-17T19:37:56.844Z,6.10
2023-03-17T19:40:24.028Z,4.90
2023-03-17T19:42:51.433Z,5.27
2023-03-17T19:45:18.721Z,5.00
2023-03-17T19:47:47.389Z,6.30
2023-03-17T19:50:14.893Z,5.93
2023-03-17T19:52:42.037Z,5.27
2023-03-17T19:55:11.009Z,4.83
2023-03-17T19:57:38.223Z,8.10
2023-03-17T20:00:09.025Z,5.47
2023-03-17T20:02:37.337Z,6.17
2023-03-17T20:05:04.971Z,4.33
2023-03-17T20:07:32.998Z,5.53
2023-03-17T20:10:12.364Z,5.03
2023-03-17T20:12:40.679Z,3.80
2023-03-17T20:15:08.685Z,7.07
2023-03-17T20:17:36.789Z,7.10
2023-03-17T20:20:05.021Z,5.87
2023-03-17T20:22:32.602Z,4.53
2023-03-17T20:24:59.838Z,6.27
2023-03-17T20:27:27.766Z,4.87
2023-03-17T20:29:55.758Z,5.43
2023-03-17T20:32:23.957Z,4.77
2023-03-17T20:34:51.073Z,7.10
2023-03-17T20:37:18.264Z,6.23
2023-03-17T20:39:45.729Z,7.83
2023-03-17T20:42:14.855Z,11.87
2023-03-17T20:44:53.293Z,7.50
2023-03-17T20:47:30.303Z,8.67
2023-03-17T20:49:59.004Z,5.93
2023-03-17T20:53:09.560Z,8.20
2023-03-17T20:55:37.710Z,6.50
2023-03-17T20:58:05.138Z,7.57
2023-03-17T21:00:33.027Z,7.97
2023-03-17T21:03:00.746Z,7.47
2023-03-17T21:05:28.817Z,9.27
2023-03-17T21:07:56.832Z,16.27
2023-03-17T21:10:24.133Z,8.33
2023-03-17T21:12:51.295Z,8.33
2023-03-17T21:15:19.138Z,11.33
2023-03-17T21:17:46.285Z,13.43
2023-03-17T21:20:25.618Z,11.47
2023-03-17T21:22:52.794Z,9.80
2023-03-17T21:25:20.232Z,9.17
2023-03-17T21:27:47.376Z,6.80
2023-03-17T21:30:14.772Z,8.77
2023-03-17T21:32:42.379Z,6.37
2023-03-17T21:35:11.481Z,8.90
2023-03-17T21:37:38.895Z,9.43
2023-03-17T21:40:07.272Z,10.03
2023-03-17T21:42:35.094Z,9.23
2023-03-17T21:45:02.860Z,8.37
2023-03-17T21:47:30.397Z,6.17
2023-03-17T21:49:58.857Z,8.30
2023-03-17T21:52:26.510Z,7.20
2023-03-17T21:54:53.625Z,7.47
2023-03-17T21:57:21.047Z,13.87
2023-03-17T21:59:49.326Z,12.63
2023-03-17T22:02:18.098Z,6.33
2023-03-17T22:04:46.951Z,9.00
2023-03-17T22:07:14.368Z,9.70
2023-03-17T22:09:41.937Z,7.20
2023-03-17T22:12:09.666Z,7.70
2023-03-17T22:14:37.493Z,8.93
2023-03-17T22:17:08.392Z,6.93
2023-03-17T22:19:36.075Z,16.23
2023-03-17T22:22:03.931Z,8.73
2023-03-17T22:24:32.692Z,9.37
2023-03-17T22:27:00.093Z,11.33
2023-03-17T22:29:27.616Z,9.87
2023-03-17T22:31:55.037Z,10.57
2023-03-17T22:34:26.022Z,6.57
2023-03-17T22:36:53.301Z,8.77
2023-03-17T22:39:21.118Z,9.13
2023-03-17T22:41:48.523Z,8.37
2023-03-17T22:44:15.997Z,11.00
2023-03-17T22:46:43.246Z,8.87
2023-03-17T22:49:10.651Z,9.20
2023-03-17T22:51:38.223Z,10.53
2023-03-17T22:54:05.656Z,12.77
2023-03-17T22:56:33.214Z,11.17
2023-03-17T22:59:00.562Z,9.60
2023-03-17T23:01:27.883Z,7.00
2023-03-17T23:03:55.730Z,8.87
2023-03-17T23:06:23.358Z,8.83
2023-03-17T23:08:51.255Z,11.00
2023-03-17T23:11:22.571Z,6.73
2023-03-17T23:13:51.491Z,12.10
2023-03-17T23:16:20.618Z,8.43
2023-03-17T23:18:48.280Z,10.00
2023-03-17T23:21:28.057Z,11.40
2023-03-17T23:23:55.787Z,11.57
2023-03-17T23:26:37.249Z,10.50
2023-03-17T23:29:07.133Z,8.13
2023-03-17T23:31:35.117Z,12.27
2023-03-17T23:34:03.767Z,10.40
2023-03-17T23:36:31.291Z,10.37
2023-03-17T23:38:58.369Z,15.77
2023-03-17T23:41:26.147Z,14.80
2023-03-17T23:43:53.531Z,10.30
2023-03-17T23:46:20.928Z,8.20
2023-03-17T23:48:49.637Z,10.37
2023-03-17T23:51:17.904Z,10.37
2023-03-17T23:53:46.726Z,11.03
2023-03-17T23:56:14.207Z,14.33
2023-03-17T23:58:43.425Z,10.97
